Time;durP1;ratioP1;P1;durP2;ratioP2;P2;SDS_P1;SDS_P2;PMS_P1;PMS_P2;Temp;Humidity;BMP_temperature;BMP_pressure;BME280_temperature;BME280_humidity;BME280_pressure;Samples;Min_cycle;Max_cycle;Signal;HPM_P1;HPM_P2
2023/03/10 00:02:08;;;;;;;9.23;5.75;;;;;;;4.24;100.00;98654.91;5031116;28;20120;-85
2023/03/10 00:04:33;;;;;;;10.13;5.60;;;;;;;4.22;100.00;98644.66;5034328;28;20032;-85
2023/03/10 00:06:58;;;;;;;9.00;5.35;;;;;;;4.20;100.00;98640.47;5033560;28;20096;-85
2023/03/10 00:09:24;;;;;;;8.50;5.35;;;;;;;4.19;100.00;98633.63;5034249;28;20111;-84
2023/03/10 00:11:49;;;;;;;7.38;4.80;;;;;;;4.17;100.00;98633.69;5033258;28;20029;-85
2023/03/10 00:14:15;;;;;;;7.60;4.93;;;;;;;4.15;100.00;98638.06;5033769;28;20468;-85
2023/03/10 00:16:40;;;;;;;7.03;4.53;;;;;;;4.16;100.00;98644.88;5033523;28;20041;-85
2023/03/10 00:19:06;;;;;;;6.82;4.65;;;;;;;4.19;100.00;98649.06;5032446;28;20564;-85
2023/03/10 00:21:32;;;;;;;6.53;4.32;;;;;;;4.22;100.00;98646.41;5032933;28;20033;-84
2023/03/10 00:23:58;;;;;;;7.03;4.38;;;;;;;4.24;100.00;98648.00;5033000;28;20066;-85
2023/03/10 00:26:26;;;;;;;6.47;4.30;;;;;;;4.25;100.00;98644.53;5032918;28;20385;-84
2023/03/10 00:28:53;;;;;;;7.45;4.95;;;;;;;4.25;100.00;98641.97;5033794;28;20060;-84
2023/03/10 00:31:21;;;;;;;6.85;4.55;;;;;;;4.27;100.00;98641.06;5032708;28;20062;-84
2023/03/10 00:33:46;;;;;;;6.22;4.47;;;;;;;4.28;100.00;98648.72;5034081;28;20029;-84
2023/03/10 00:36:18;;;;;;;6.95;4.57;;;;;;;4.30;100.00;98651.28;5033827;28;20047;-84
2023/03/10 00:38:44;;;;;;;7.00;4.75;;;;;;;4.31;100.00;98648.63;5031409;28;20055;-84
2023/03/10 00:41:13;;;;;;;6.80;4.38;;;;;;;4.31;100.00;98637.50;5032574;28;20021;-84
2023/03/10 00:43:39;;;;;;;6.68;4.25;;;;;;;4.31;100.00;98646.06;5015178;28;20029;-84
2023/03/10 00:46:05;;;;;;;7.03;4.63;;;;;;;4.32;100.00;98645.16;5014842;28;20087;-84
2023/03/10 00:48:31;;;;;;;6.35;4.32;;;;;;;4.31;100.00;98638.34;5032606;28;21562;-84
2023/03/10 00:50:57;;;;;;;7.53;4.47;;;;;;;4.30;100.00;98641.78;5032698;28;20026;-84
2023/03/10 00:53:23;;;;;;;7.55;4.68;;;;;;;4.31;100.00;98643.47;5031574;28;20036;-84
2023/03/10 00:56:00;;;;;;;6.53;4.10;;;;;;;4.32;100.00;98652.88;5031561;28;20045;-84
2023/03/10 00:58:25;;;;;;;6.45;4.65;;;;;;;4.32;100.00;98645.16;5031496;28;20130;-84
2023/03/10 01:00:51;;;;;;;6.32;4.40;;;;;;;4.34;100.00;98648.53;5032047;28;20462;-84
2023/03/10 01:03:16;;;;;;;7.28;4.72;;;;;;;4.33;100.00;98652.00;5031520;28;20058;-84
2023/03/10 01:05:41;;;;;;;6.85;4.47;;;;;;;4.35;100.00;98649.38;5034320;28;20531;-84
2023/03/10 01:08:07;;;;;;;7.45;4.78;;;;;;;4.37;100.00;98653.56;5033283;28;20525;-83
2023/03/10 01:10:32;;;;;;;7.50;4.72;;;;;;;4.38;100.00;98649.25;5033048;28;20033;-84
2023/03/10 01:12:57;;;;;;;7.50;4.85;;;;;;;4.39;100.00;98646.63;5033479;28;20049;-83
2023/03/10 01:15:23;;;;;;;7.22;4.65;;;;;;;4.40;100.00;98647.47;5033664;28;20025;-84
2023/03/10 01:17:48;;;;;;;7.75;5.00;;;;;;;4.42;100.00;98650.00;5033701;28;20029;-83
2023/03/10 01:20:15;;;;;;;8.20;5.40;;;;;;;4.44;100.00;98643.06;5015820;28;20046;-83
2023/03/10 01:22:41;;;;;;;8.35;5.28;;;;;;;4.45;100.00;98640.41;5034059;28;20017;-83
2023/03/10 01:25:08;;;;;;;7.47;4.97;;;;;;;4.46;100.00;98633.53;5032995;28;20051;-83
2023/03/10 01:27:33;;;;;;;7.55;4.97;;;;;;;4.46;100.00;98628.38;5033414;28;20380;-84
2023/03/10 01:29:59;;;;;;;8.60;5.18;;;;;;;4.44;100.00;98618.16;5033632;28;20035;-83
2023/03/10 01:32:24;;;;;;;8.30;5.25;;;;;;;4.44;100.00;98617.31;5033730;28;20025;-83
2023/03/10 01:34:49;;;;;;;8.27;5.45;;;;;;;4.43;100.00;98623.38;5032140;28;20029;-83
2023/03/10 01:37:14;;;;;;;8.32;5.35;;;;;;;4.44;100.00;98623.28;5031867;28;20504;-83
2023/03/10 01:39:40;;;;;;;8.48;5.50;;;;;;;4.47;100.00;98614.59;5030606;28;20021;-83
2023/03/10 01:42:05;;;;;;;9.75;5.47;;;;;;;4.51;100.00;98611.88;5033696;28;20021;-83
2023/03/10 01:44:30;;;;;;;9.48;5.75;;;;;;;4.55;100.00;98610.84;5032205;28;20022;-83
2023/03/10 01:46:57;;;;;;;9.05;5.50;;;;;;;4.60;100.00;98613.28;5031209;28;20181;-84
2023/03/10 01:49:35;;;;;;;9.48;5.55;;;;;;;4.65;100.00;98606.19;5032221;28;21736;-84
2023/03/10 01:52:15;;;;;;;9.52;5.78;;;;;;;4.74;100.00;98615.31;5031833;28;20105;-84
2023/03/10 01:54:53;;;;;;;8.10;5.00;;;;;;;4.82;100.00;98607.28;5030929;28;20032;-84
2023/03/10 01:57:22;;;;;;;7.82;4.75;;;;;;;4.93;100.00;98604.31;5032556;28;20162;-84
2023/03/10 01:59:49;;;;;;;7.43;4.60;;;;;;;5.05;100.00;98600.41;5028775;28;20033;-84
2023/03/10 02:02:16;;;;;;;7.97;4.40;;;;;;;5.15;100.00;98594.00;5028520;28;20036;-84
2023/03/10 02:04:50;;;;;;;7.13;4.22;;;;;;;5.26;100.00;98586.69;5032061;28;20029;-84
2023/03/10 02:07:18;;;;;;;7.00;4.22;;;;;;;5.38;100.00;98585.31;5033010;28;20135;-84
2023/03/10 02:09:46;;;;;;;7.25;4.15;;;;;;;5.50;100.00;98583.16;5029257;28;20021;-84
2023/03/10 02:12:14;;;;;;;6.40;3.67;;;;;;;5.61;100.00;98586.13;5031607;28;20033;-84
2023/03/10 02:14:42;;;;;;;5.38;3.63;;;;;;;5.70;100.00;98590.91;5030696;28;20029;-84
2023/03/10 02:17:12;;;;;;;6.38;3.70;;;;;;;5.79;100.00;98587.09;5031891;28;20159;-84
2023/03/10 02:20:03;;;;;;;5.15;3.65;;;;;;;5.87;100.00;98594.53;5030676;28;20034;-84
2023/03/10 02:22:28;;;;;;;5.53;3.70;;;;;;;5.96;100.00;98593.28;5031700;28;20037;-84
2023/03/10 02:25:06;;;;;;;6.13;3.63;;;;;;;6.01;100.00;98588.78;5031669;28;20048;-84
2023/03/10 02:27:36;;;;;;;5.65;3.35;;;;;;;6.08;100.00;98585.03;5031572;28;20021;-84
2023/03/10 02:30:06;;;;;;;5.25;3.58;;;;;;;6.13;100.00;98583.09;5031370;28;20483;-84
2023/03/10 02:32:37;;;;;;;6.13;3.95;;;;;;;6.20;100.00;98573.34;5032843;28;20026;-84
2023/03/10 02:35:03;;;;;;;6.13;3.45;;;;;;;6.27;100.00;98573.91;5032322;28;20064;-84
2023/03/10 02:37:31;;;;;;;5.32;3.53;;;;;;;6.31;100.00;98565.13;5031608;28;20477;-84
2023/03/10 02:39:57;;;;;;;6.38;3.85;;;;;;;6.34;100.00;98559.78;5030423;28;20082;-83
2023/03/10 02:42:25;;;;;;;5.45;3.47;;;;;;;6.39;100.00;98557.84;5031047;28;20510;-84
2023/03/10 02:44:51;;;;;;;5.50;3.80;;;;;;;6.40;100.00;98554.34;5030828;28;20029;-83
2023/03/10 02:47:18;;;;;;;6.10;3.97;;;;;;;6.42;100.00;98560.28;5031092;28;20036;-84
2023/03/10 02:49:45;;;;;;;6.10;3.92;;;;;;;6.44;100.00;98555.91;5029727;28;20025;-83
2023/03/10 02:52:24;;;;;;;8.45;3.80;;;;;;;6.45;100.00;98551.56;5029434;28;20096;-84
2023/03/10 02:54:49;;;;;;;4.90;3.50;;;;;;;6.48;100.00;98547.09;5030095;28;20033;-84
2023/03/10 02:57:14;;;;;;;4.47;3.30;;;;;;;6.48;100.00;98536.78;5030886;28;20028;-84
2023/03/10 02:59:39;;;;;;;6.10;3.85;;;;;;;6.53;100.00;98539.13;5030021;28;20029;-84
2023/03/10 03:02:05;;;;;;;4.65;3.13;;;;;;;6.55;100.00;98544.22;5030166;28;20056;-83
2023/03/10 03:04:30;;;;;;;7.03;3.80;;;;;;;6.59;100.00;98538.00;5029268;28;20024;-84
2023/03/10 03:06:56;;;;;;;5.13;3.65;;;;;;;6.62;100.00;98532.72;5030981;28;20530;-84
2023/03/10 03:09:21;;;;;;;8.30;3.60;;;;;;;6.63;100.00;98531.81;5029328;28;20031;-84
2023/03/10 03:11:46;;;;;;;6.65;4.00;;;;;;;6.63;100.00;98530.03;5031138;28;20083;-84
2023/03/10 03:14:12;;;;;;;6.20;3.40;;;;;;;6.64;100.00;98525.72;5031655;28;20112;-84
2023/03/10 03:16:37;;;;;;;4.60;3.33;;;;;;;6.61;100.00;98516.34;5031186;28;20477;-84
2023/03/10 03:19:02;;;;;;;5.63;3.40;;;;;;;6.62;100.00;98524.97;5029856;28;20053;-84
2023/03/10 03:21:27;;;;;;;7.25;3.28;;;;;;;6.62;100.00;98522.38;5030913;28;20076;-84
2023/03/10 03:23:53;;;;;;;4.72;2.90;;;;;;;6.63;100.00;98518.88;5031342;28;20392;-84
2023/03/10 03:26:20;;;;;;;4.78;3.15;;;;;;;6.61;100.00;98520.69;5031144;28;20029;-84
2023/03/10 03:28:46;;;;;;;4.82;3.13;;;;;;;6.60;100.00;98516.44;5030231;28;20026;-83
2023/03/10 03:31:14;;;;;;;5.07;3.22;;;;;;;6.56;100.00;98518.34;5030764;28;20116;-84
2023/03/10 03:33:39;;;;;;;5.15;3.33;;;;;;;6.53;100.00;98523.63;5031230;28;20033;-84
2023/03/10 03:36:04;;;;;;;5.63;3.17;;;;;;;6.56;100.00;98532.97;5029836;28;20029;-84
2023/03/10 03:38:31;;;;;;;5.40;3.15;;;;;;;6.55;100.00;98527.00;5029940;28;20028;-84
2023/03/10 03:40:56;;;;;;;4.78;3.20;;;;;;;6.58;100.00;98526.00;5013889;28;20021;-84
2023/03/10 03:43:22;;;;;;;4.70;3.05;;;;;;;6.57;100.00;98522.59;5032197;28;20484;-83
2023/03/10 03:45:47;;;;;;;5.32;3.15;;;;;;;6.56;100.00;98520.91;5012042;28;20021;-84
2023/03/10 03:48:13;;;;;;;8.02;3.15;;;;;;;6.56;100.00;98517.47;5029085;28;20504;-83
2023/03/10 03:50:38;;;;;;;4.47;2.83;;;;;;;6.60;100.00;98526.78;5030918;28;20044;-83
2023/03/10 03:53:04;;;;;;;4.95;2.92;;;;;;;6.59;100.00;98517.34;5029599;28;20025;-83
2023/03/10 03:55:30;;;;;;;6.53;3.00;;;;;;;6.60;100.00;98519.84;5030136;28;20066;-83
2023/03/10 03:57:55;;;;;;;4.97;2.83;;;;;;;6.61;100.00;98510.38;5029811;28;20488;-83
2023/03/10 04:00:22;;;;;;;4.93;3.03;;;;;;;6.61;100.00;98521.53;5028280;28;20104;-83
2023/03/10 04:02:48;;;;;;;5.00;2.45;;;;;;;6.63;100.00;98529.22;5028696;28;20508;-83
2023/03/10 04:05:14;;;;;;;5.32;2.97;;;;;;;6.65;100.00;98529.97;5029025;28;20108;-84
2023/03/10 04:07:41;;;;;;;4.80;2.35;;;;;;;6.69;100.00;98523.75;5028685;28;20112;-83
2023/03/10 04:10:09;;;;;;;6.22;2.80;;;;;;;6.72;100.00;98512.44;5028730;28;20166;-84
2023/03/10 04:12:34;;;;;;;6.45;2.55;;;;;;;6.75;100.00;98515.72;5013282;28;20056;-84
2023/03/10 04:14:59;;;;;;;4.25;2.35;;;;;;;6.75;100.00;98513.13;5030995;28;20057;-83
2023/03/10 04:17:25;;;;;;;6.22;2.50;;;;;;;6.78;100.00;98507.81;5028730;28;20100;-84
2023/03/10 04:19:50;;;;;;;5.45;2.20;;;;;;;6.80;100.00;98503.41;5029695;28;20046;-84
2023/03/10 04:22:15;;;;;;;5.45;2.40;;;;;;;6.81;100.00;98502.50;5030446;28;20049;-84
2023/03/10 04:24:40;;;;;;;5.15;2.15;;;;;;;6.82;100.00;98504.19;5028619;28;20044;-84
2023/03/10 04:27:08;;;;;;;4.45;1.90;;;;;;;6.83;100.00;98500.66;5030326;28;20025;-84
2023/03/10 04:29:35;;;;;;;4.57;1.83;;;;;;;6.86;100.00;98498.84;5028909;28;20025;-84
2023/03/10 04:32:00;;;;;;;5.35;2.28;;;;;;;6.88;100.00;98499.59;5031345;28;20075;-84
2023/03/10 04:34:26;;;;;;;3.17;1.70;;;;;;;6.89;100.00;98496.97;5028875;28;20025;-84
2023/03/10 04:36:51;;;;;;;4.35;2.05;;;;;;;6.92;100.00;98498.56;5028418;28;20395;-84
2023/03/10 04:39:16;;;;;;;3.90;1.90;;;;;;;6.93;100.00;98502.81;5028451;28;20036;-84
2023/03/10 04:41:41;;;;;;;5.03;1.80;;;;;;;6.93;100.00;98500.22;5029852;28;20084;-83
2023/03/10 04:44:07;;;;;;;4.50;1.83;;;;;;;6.92;100.00;98486.44;5029907;28;20022;-84
2023/03/10 04:46:32;;;;;;;4.90;1.85;;;;;;;6.93;100.00;98495.88;5030127;28;20379;-84
2023/03/10 04:48:57;;;;;;;4.03;1.80;;;;;;;6.93;100.00;98490.72;5031207;28;20035;-84
2023/03/10 04:51:23;;;;;;;4.07;1.67;;;;;;;6.93;100.00;98490.72;5032270;28;20457;-84
2023/03/10 04:53:49;;;;;;;4.20;1.70;;;;;;;6.92;100.00;98483.03;5034793;28;20422;-84
2023/03/10 04:56:15;;;;;;;5.18;1.90;;;;;;;6.92;100.00;98483.03;5032545;28;20740;-84
2023/03/10 04:58:40;;;;;;;4.15;1.60;;;;;;;6.88;100.00;98484.09;5032186;28;20138;-84
2023/03/10 05:01:09;;;;;;;3.63;1.55;;;;;;;6.86;100.00;98481.59;5032309;28;20031;-84
2023/03/10 05:03:35;;;;;;;4.80;1.60;;;;;;;6.84;100.00;98486.81;5031041;28;20136;-83
2023/03/10 05:06:00;;;;;;;4.78;1.35;;;;;;;6.81;100.00;98484.41;5034853;28;20033;-84
2023/03/10 05:08:25;;;;;;;4.13;1.50;;;;;;;6.79;100.00;98478.47;5033041;28;20029;-84
2023/03/10 05:10:51;;;;;;;5.55;1.50;;;;;;;6.77;100.00;98482.88;5033992;28;20029;-84
2023/03/10 05:13:16;;;;;;;5.65;1.73;;;;;;;6.77;100.00;98484.63;5033972;28;20125;-83
2023/03/10 05:15:42;;;;;;;3.38;1.65;;;;;;;6.76;100.00;98481.22;5033296;28;20449;-83
2023/03/10 05:18:09;;;;;;;6.43;1.65;;;;;;;6.77;100.00;98482.88;5015489;28;20060;-83
2023/03/10 05:20:35;;;;;;;6.13;1.50;;;;;;;6.76;100.00;98476.03;5032286;28;20451;-83
2023/03/10 05:23:00;;;;;;;5.32;1.65;;;;;;;6.75;100.00;98479.53;5033912;28;20029;-84
2023/03/10 05:25:26;;;;;;;6.22;1.50;;;;;;;6.74;100.00;98480.44;5032826;28;20037;-83
2023/03/10 05:27:51;;;;;;;4.18;1.23;;;;;;;6.72;100.00;98468.53;5033049;28;20024;-83
2023/03/10 05:30:17;;;;;;;5.05;1.40;;;;;;;6.71;100.00;98470.25;5016165;28;20506;-83
2023/03/10 05:32:43;;;;;;;4.95;1.42;;;;;;;6.71;100.00;98474.59;5032378;28;20032;-83
2023/03/10 05:35:10;;;;;;;4.03;1.42;;;;;;;6.69;100.00;98472.06;5031614;28;20086;-84
2023/03/10 05:37:40;;;;;;;4.45;1.60;;;;;;;6.70;100.00;98478.91;5029316;28;20121;-84
2023/03/10 05:40:07;;;;;;;4.30;1.45;;;;;;;6.67;100.00;98469.56;5030524;28;20052;-83
2023/03/10 05:42:33;;;;;;;5.70;1.27;;;;;;;6.66;100.00;98473.06;5033247;28;20028;-83
2023/03/10 05:44:58;;;;;;;5.20;1.40;;;;;;;6.66;100.00;98474.81;5031495;28;20101;-84
2023/03/10 05:47:23;;;;;;;5.25;1.38;;;;;;;6.64;100.00;98474.88;5029777;28;20025;-84
2023/03/10 05:49:49;;;;;;;5.97;1.50;;;;;;;6.65;100.00;98475.72;5030006;28;20054;-83
2023/03/10 05:52:14;;;;;;;5.90;1.60;;;;;;;6.65;100.00;98475.72;5033060;28;20029;-83
2023/03/10 05:54:40;;;;;;;7.35;1.65;;;;;;;6.67;100.00;98484.22;5032266;28;20040;-83
2023/03/10 05:57:05;;;;;;;7.53;1.75;;;;;;;6.66;100.00;98478.22;5028761;28;20034;-83
2023/03/10 05:59:30;;;;;;;5.38;1.50;;;;;;;6.68;100.00;98493.66;5029363;28;20489;-83
2023/03/10 06:01:55;;;;;;;6.75;1.60;;;;;;;6.67;100.00;98476.47;5030585;28;20525;-83
2023/03/10 06:04:21;;;;;;;4.43;1.30;;;;;;;6.68;100.00;98488.47;5011427;28;20048;-83
2023/03/10 06:06:46;;;;;;;4.80;1.60;;;;;;;6.67;100.00;98482.47;5032647;28;20546;-83
2023/03/10 06:09:11;;;;;;;5.60;1.80;;;;;;;6.70;100.00;98480.66;5031239;28;20021;-83
2023/03/10 06:11:36;;;;;;;4.40;1.30;;;;;;;6.73;100.00;98480.53;5031423;28;20714;-83
2023/03/10 06:14:03;;;;;;;4.95;1.40;;;;;;;6.74;100.00;98482.19;5029704;28;20029;-83
2023/03/10 06:16:28;;;;;;;4.35;1.50;;;;;;;6.76;100.00;98483.78;5030719;28;20445;-83
2023/03/10 06:18:55;;;;;;;5.55;1.40;;;;;;;6.79;100.00;98477.63;5032584;28;20511;-83
2023/03/10 06:21:21;;;;;;;7.10;1.55;;;;;;;6.80;100.00;98475.00;5031437;28;20037;-84
2023/03/10 06:23:46;;;;;;;6.65;1.70;;;;;;;6.81;100.00;98481.84;5031310;28;20036;-84
2023/03/10 06:26:14;;;;;;;6.80;1.60;;;;;;;6.83;100.00;98485.16;5029942;28;20391;-84
2023/03/10 06:28:42;;;;;;;6.35;1.48;;;;;;;6.84;100.00;98491.16;5032174;28;20091;-84
2023/03/10 06:31:13;;;;;;;7.05;1.42;;;;;;;6.88;100.00;98489.28;5029831;28;20029;-84
2023/03/10 06:33:38;;;;;;;5.33;1.30;;;;;;;6.90;100.00;98484.88;5028323;28;20492;-84
2023/03/10 06:36:04;;;;;;;6.68;2.13;;;;;;;6.94;100.00;98486.41;5032603;28;20104;-84
2023/03/10 06:38:29;;;;;;;7.00;1.50;;;;;;;6.98;100.00;98490.50;5029863;28;20102;-84
2023/03/10 06:40:55;;;;;;;6.47;1.48;;;;;;;6.99;100.00;98484.44;5030534;28;20433;-84
2023/03/10 06:43:21;;;;;;;6.82;1.35;;;;;;;7.02;100.00;98496.38;5032949;28;20040;-84
2023/03/10 06:45:46;;;;;;;5.70;1.40;;;;;;;7.02;100.00;98497.19;5031008;28;20563;-84
2023/03/10 06:48:12;;;;;;;6.18;1.55;;;;;;;7.02;100.00;98494.59;5031346;28;20484;-84
2023/03/10 06:50:46;;;;;;;7.25;1.40;;;;;;;7.04;100.00;98494.53;5029131;28;20037;-84
2023/03/10 06:53:12;;;;;;;4.43;1.40;;;;;;;7.04;100.00;98497.94;5030132;28;20491;-84
2023/03/10 06:55:38;;;;;;;6.95;1.50;;;;;;;7.06;100.00;98503.88;5013795;28;20357;-84
2023/03/10 06:58:03;;;;;;;6.45;1.63;;;;;;;7.10;100.00;98512.31;5030545;28;20070;-84
2023/03/10 07:00:28;;;;;;;10.95;1.85;;;;;;;7.11;100.00;98512.25;5028695;28;20435;-84
2023/03/10 07:02:54;;;;;;;5.30;1.67;;;;;;;7.13;100.00;98518.19;5029890;28;20500;-83
2023/03/10 07:05:21;;;;;;;5.55;1.70;;;;;;;7.17;100.00;98518.06;5030450;28;20037;-83
2023/03/10 07:07:49;;;;;;;9.95;2.00;;;;;;;7.17;100.00;98523.22;5030818;28;20025;-83
2023/03/10 07:10:15;;;;;;;7.90;1.90;;;;;;;7.18;100.00;98519.69;5013619;28;20048;-83
2023/03/10 07:12:41;;;;;;;5.93;1.90;;;;;;;7.18;100.00;98497.28;5028934;28;20029;-84
2023/03/10 07:15:07;;;;;;;9.85;2.35;;;;;;;7.19;100.00;98516.19;5032439;28;20365;-84
2023/03/10 07:17:32;;;;;;;5.32;1.67;;;;;;;7.18;100.00;98499.88;5031727;28;20489;-84
2023/03/10 07:19:57;;;;;;;7.43;1.85;;;;;;;7.17;100.00;98518.88;5010130;28;20052;-84
2023/03/10 07:22:23;;;;;;;8.43;1.90;;;;;;;7.17;100.00;98518.88;5012933;28;20107;-84
2023/03/10 07:24:48;;;;;;;6.15;1.85;;;;;;;7.17;100.00;98507.72;5011850;28;20500;-84
2023/03/10 07:27:13;;;;;;;5.55;1.80;;;;;;;7.18;100.00;98519.69;5010957;28;20072;-84
2023/03/10 07:29:38;;;;;;;6.53;1.88;;;;;;;7.19;100.00;98521.38;5011714;28;20033;-84
2023/03/10 07:32:04;;;;;;;5.88;1.77;;;;;;;7.22;100.00;98518.63;5009098;28;20107;-84
2023/03/10 07:34:29;;;;;;;5.43;1.95;;;;;;;7.27;100.00;98524.44;5010794;28;20030;-84
2023/03/10 07:36:54;;;;;;;6.68;1.65;;;;;;;7.28;100.00;98526.09;5010458;28;20555;-84
2023/03/10 07:39:20;;;;;;;5.80;1.63;;;;;;;7.32;100.00;98532.81;5009025;28;20041;-84
2023/03/10 07:41:45;;;;;;;10.13;2.15;;;;;;;7.37;100.00;98525.63;5010427;28;20045;-84
2023/03/10 07:44:10;;;;;;;4.72;1.70;;;;;;;7.47;100.00;98526.00;5007874;28;20037;-87
2023/03/10 07:46:35;;;;;;;7.00;2.00;;;;;;;7.58;100.00;98534.09;5015512;28;20029;-85
2023/03/10 07:49:03;;;;;;;5.65;1.73;;;;;;;7.69;100.00;98536.09;5017185;28;20051;-85
2023/03/10 07:51:29;;;;;;;5.20;1.67;;;;;;;7.81;100.00;98533.81;5011012;28;20030;-88
2023/03/10 07:53:54;;;;;;;5.35;1.70;;;;;;;7.94;100.00;98536.63;5017193;28;20095;-88
2023/03/10 07:56:20;;;;;;;5.22;1.80;;;;;;;8.03;100.00;98541.31;5014577;28;20116;-85
2023/03/10 07:58:45;;;;;;;5.53;1.55;;;;;;;8.13;100.00;98539.88;5015012;28;20437;-86
2023/03/10 08:01:15;;;;;;;6.22;1.55;;;;;;;8.22;100.00;98541.16;5017433;28;20362;-84
2023/03/10 08:03:41;;;;;;;6.47;1.88;;;;;;;8.28;100.00;98542.59;5007745;28;20037;-85
2023/03/10 08:06:06;;;;;;;6.22;1.90;;;;;;;8.31;100.00;98548.44;5014295;28;20033;-85
2023/03/10 08:08:32;;;;;;;7.25;1.70;;;;;;;8.33;100.00;98544.03;5013006;28;20033;-85
2023/03/10 08:11:05;;;;;;;5.50;1.73;;;;;;;8.31;100.00;98553.63;5014219;28;20033;-85
2023/03/10 08:13:31;;;;;;;7.22;1.52;;;;;;;8.26;100.00;98549.63;5013735;28;20480;-85
2023/03/10 08:15:58;;;;;;;6.45;1.50;;;;;;;8.24;100.00;98546.28;5014459;28;20248;-86
2023/03/10 08:18:25;;;;;;;5.25;1.52;;;;;;;8.20;100.00;98550.75;5011930;28;20105;-86
2023/03/10 08:20:50;;;;;;;6.25;1.50;;;;;;;8.18;100.00;98548.25;5031087;28;20096;-86
2023/03/10 08:23:15;;;;;;;5.93;1.45;;;;;;;8.19;100.00;98544.75;5035186;28;20471;-87
2023/03/10 08:25:40;;;;;;;10.23;1.42;;;;;;;8.25;100.00;98547.94;5017260;28;20543;-86
2023/03/10 08:28:06;;;;;;;5.45;1.55;;;;;;;8.27;100.00;98549.53;5034055;28;20345;-85
2023/03/10 08:30:31;;;;;;;4.05;1.48;;;;;;;8.34;100.00;98547.44;5039745;28;20032;-85
2023/03/10 08:32:56;;;;;;;7.70;1.73;;;;;;;8.41;100.00;98545.34;5036385;28;20029;-85
2023/03/10 08:35:21;;;;;;;5.60;1.63;;;;;;;8.48;100.00;98544.16;5039892;28;20538;-85
2023/03/10 08:37:47;;;;;;;6.95;1.38;;;;;;;8.54;100.00;98554.16;5040706;28;20032;-84
2023/03/10 08:40:13;;;;;;;6.28;1.70;;;;;;;8.60;100.00;98553.84;5033815;28;20484;-85
2023/03/10 08:42:39;;;;;;;3.40;1.10;;;;;;;8.63;100.00;98558.84;5034125;28;21077;-86
2023/03/10 08:45:05;;;;;;;3.72;1.35;;;;;;;8.62;100.00;98552.00;5036467;28;20029;-84
2023/03/10 08:47:30;;;;;;;6.82;1.45;;;;;;;8.63;100.00;98558.00;5035052;28;20025;-85
2023/03/10 08:49:55;;;;;;;3.95;1.33;;;;;;;8.61;100.00;98558.09;5037776;28;20036;-85
2023/03/10 08:52:21;;;;;;;7.00;1.70;;;;;;;8.59;100.00;98557.34;5039107;28;20037;-85
2023/03/10 08:54:46;;;;;;;8.23;1.80;;;;;;;8.59;100.00;98546.97;5038059;28;20033;-85
2023/03/10 08:57:11;;;;;;;5.35;1.55;;;;;;;8.58;100.00;98554.84;5039341;28;20127;-84
2023/03/10 08:59:36;;;;;;;4.55;1.45;;;;;;;8.57;100.00;98548.81;5037005;28;20036;-84
2023/03/10 09:02:02;;;;;;;6.32;1.67;;;;;;;8.61;100.00;98550.31;5034660;28;20029;-86
2023/03/10 09:04:27;;;;;;;5.30;1.73;;;;;;;8.70;100.00;98553.34;5019034;28;20406;-84
2023/03/10 09:06:52;;;;;;;5.50;2.10;;;;;;;8.79;100.00;98548.50;5034434;28;20028;-83
2023/03/10 09:09:18;;;;;;;4.05;1.70;;;;;;;8.93;100.00;98545.13;5038538;28;20029;-85
2023/03/10 09:11:43;;;;;;;5.28;1.70;;;;;;;9.03;100.00;98537.66;5022835;28;20103;-84
2023/03/10 09:14:10;;;;;;;6.32;1.75;;;;;;;9.11;100.00;98542.41;5034450;28;20043;-83
2023/03/10 09:16:38;;;;;;;6.18;2.05;;;;;;;9.11;100.00;98545.00;5034222;28;20069;-84
2023/03/10 09:19:03;;;;;;;6.78;1.98;;;;;;;9.13;100.00;98550.94;5030917;28;20064;-84
2023/03/10 09:21:30;;;;;;;6.05;1.75;;;;;;;9.14;100.00;98546.59;5032171;28;20033;-83
2023/03/10 09:23:56;;;;;;;7.18;1.65;;;;;;;9.10;100.00;98541.59;5037683;28;20033;-84
2023/03/10 09:26:21;;;;;;;6.70;2.20;;;;;;;9.08;100.00;98540.84;5036752;28;20103;-83
2023/03/10 09:28:48;;;;;;;4.82;1.55;;;;;;;9.07;100.00;98541.75;5038594;28;20091;-83
2023/03/10 09:31:35;;;;;;;5.22;1.50;;;;;;;9.05;100.00;98547.97;5031479;28;20112;-86
2023/03/10 09:34:01;;;;;;;5.50;1.65;;;;;;;9.03;100.00;98549.81;5032813;28;20057;-86
2023/03/10 09:36:28;;;;;;;7.28;1.73;;;;;;;8.99;100.00;98543.09;5033222;28;20091;-81
2023/03/10 09:38:54;;;;;;;4.57;1.77;;;;;;;8.98;100.00;98542.25;5036720;28;20500;-83
2023/03/10 09:41:39;;;;;;;8.70;2.15;;;;;;;8.97;100.00;98543.16;5035859;28;20038;-84
2023/03/10 09:44:41;;;;;;;6.65;1.90;;;;;;;9.00;100.00;98540.41;5036572;28;20047;-83
2023/03/10 09:47:34;;;;;;;9.02;1.90;;;;;;;8.99;100.00;98533.56;5013196;28;21494;-84
2023/03/10 09:50:28;;;;;;;6.03;2.28;;;;;;;9.02;100.00;98537.75;5034934;28;20408;-84
2023/03/10 09:53:28;;;;;;;4.72;1.60;;;;;;;9.06;100.00;98534.03;5032062;28;20778;-84
2023/03/10 09:55:54;;;;;;;8.52;1.85;;;;;;;9.07;100.00;98540.91;4975181;28;20440;-84
2023/03/10 09:58:31;;;;;;;7.50;2.40;;;;;;;9.11;100.00;98547.59;5034083;28;20547;-83
2023/03/10 10:00:58;;;;;;;6.88;2.40;;;;;;;9.10;100.00;98546.78;5035239;28;20391;-85
2023/03/10 10:03:35;;;;;;;8.82;2.30;;;;;;;9.12;100.00;98549.25;5036351;28;20039;-84
2023/03/10 10:06:03;;;;;;;8.27;2.53;;;;;;;9.15;100.00;98541.31;5031813;28;20029;-83
2023/03/10 10:08:45;;;;;;;7.72;2.75;;;;;;;9.18;100.00;98548.94;5033380;28;20148;-83
2023/03/10 10:11:14;;;;;;;6.28;2.65;;;;;;;9.19;100.00;98558.38;5033217;28;20558;-83
2023/03/10 10:13:41;;;;;;;10.85;2.50;;;;;;;9.15;99.10;98563.81;5031549;28;20032;-84
2023/03/10 10:16:32;;;;;;;8.00;1.67;;;;;;;9.16;98.81;98562.88;5036569;28;20029;-84
2023/03/10 10:19:02;;;;;;;;;;;;;;;9.20;98.92;98567.00;5035339;28;20033;-83
2023/03/10 10:21:38;;;;;;;4.72;1.75;;;;;;;9.24;97.84;98568.50;5032379;28;19921;-82
2023/03/10 10:24:03;;;;;;;5.35;1.30;;;;;;;9.25;97.29;98570.97;5031999;28;20039;-84
2023/03/10 10:26:29;;;;;;;8.82;2.03;;;;;;;9.32;97.63;98571.47;5032595;28;20656;-85
2023/03/10 10:28:58;;;;;;;5.15;1.30;;;;;;;9.39;97.35;98572.81;5031104;28;20471;-84
2023/03/10 10:31:29;;;;;;;4.22;1.40;;;;;;;9.41;97.08;98575.28;5035681;28;20046;-82
2023/03/10 10:34:06;;;;;;;7.13;1.45;;;;;;;9.42;96.82;98571.78;5030816;28;20033;-83
2023/03/10 10:36:35;;;;;;;4.63;1.20;;;;;;;9.40;96.60;98578.81;5032234;28;20021;-83
2023/03/10 10:39:02;;;;;;;4.72;1.23;;;;;;;9.35;96.01;98580.84;5034828;28;20033;-84
2023/03/10 10:41:30;;;;;;;3.33;1.15;;;;;;;9.30;96.35;98582.88;5035260;28;20028;-85
2023/03/10 10:44:04;;;;;;;4.63;1.00;;;;;;;9.22;96.39;98575.53;5032019;28;20033;-84
2023/03/10 10:46:31;;;;;;;4.80;0.85;;;;;;;9.11;96.63;98578.72;5037473;28;20090;-85
2023/03/10 10:49:03;;;;;;;6.53;1.42;;;;;;;9.02;97.19;98579.25;5040254;28;20028;-83
2023/03/10 10:51:32;;;;;;;3.60;0.95;;;;;;;8.94;97.71;98583.09;5035581;28;20033;-83
2023/03/10 10:54:01;;;;;;;4.93;0.90;;;;;;;8.90;98.20;98576.41;5040421;28;20021;-85
2023/03/10 10:56:27;;;;;;;4.10;1.20;;;;;;;8.88;98.93;98573.03;5039591;28;20104;-86
2023/03/10 10:59:18;;;;;;;3.40;0.90;;;;;;;8.87;99.53;98575.75;5036285;28;20037;-86
2023/03/10 11:01:56;;;;;;;2.63;0.88;;;;;;;8.86;99.96;98559.34;5034406;28;20388;-85
2023/03/10 11:04:23;;;;;;;4.43;0.80;;;;;;;8.86;100.00;98564.53;5033138;28;20040;-85
2023/03/10 11:06:49;;;;;;;6.57;1.08;;;;;;;8.87;100.00;98565.38;5033464;28;20444;-87
2023/03/10 11:09:18;;;;;;;6.22;1.35;;;;;;;8.89;100.00;98559.16;5032410;28;20032;-85
2023/03/10 11:12:01;;;;;;;5.13;0.98;;;;;;;8.90;100.00;98563.44;5030927;28;20415;-88
2023/03/10 11:14:45;;;;;;;4.05;0.82;;;;;;;8.96;100.00;98570.06;5034766;28;20191;-87
2023/03/10 11:17:19;;;;;;;6.07;1.20;;;;;;;9.02;100.00;98569.69;5031780;28;20047;-83
2023/03/10 11:20:05;;;;;;;6.00;1.00;;;;;;;9.09;100.00;98559.81;5034226;28;20049;-86
2023/03/10 11:22:46;;;;;;;2.90;0.82;;;;;;;9.14;100.00;98552.59;5031532;28;20075;-87
2023/03/10 11:25:24;;;;;;;3.13;0.88;;;;;;;9.17;100.00;98547.25;5035650;28;20103;-84
2023/03/10 11:28:08;;;;;;;4.35;1.00;;;;;;;9.18;100.00;98548.94;5028050;28;20026;-84
2023/03/10 11:30:37;;;;;;;4.45;1.13;;;;;;;9.20;100.00;98547.09;5034354;28;20068;-86
2023/03/10 11:33:33;;;;;;;2.78;0.80;;;;;;;9.17;100.00;98542.06;5031328;28;20035;-86
2023/03/10 11:36:15;;;;;;;3.65;0.95;;;;;;;9.12;100.00;98544.06;5029526;28;20037;-86
2023/03/10 11:38:43;;;;;;;2.70;0.77;;;;;;;9.11;100.00;98539.81;5031162;28;20025;-87